sensor_id;sensor_type;location;lat;lon;timestamp;temperature;humidity
47384;DHT22;33129;52.232;5.192;2022-08-01T00:01:24;22.10;1.00
47384;DHT22;33129;52.232;5.192;2022-08-01T00:03:50;22.10;1.00
47384;DHT22;33129;52.232;5.192;2022-08-01T00:06:16;22.10;1.00
47384;DHT22;33129;52.232;5.192;2022-08-01T00:08:42;22.00;1.00
47384;DHT22;33129;52.232;5.192;2022-08-01T00:11:08;22.00;1.00
47384;DHT22;33129;52.232;5.192;2022-08-01T00:13:35;22.20;1.00
47384;DHT22;33129;52.232;5.192;2022-08-01T00:16:01;22.00;1.00
47384;DHT22;33129;52.232;5.192;2022-08-01T00:18:26;22.00;1.00
47384;DHT22;33129;52.232;5.192;2022-08-01T00:20:52;21.90;1.00
47384;DHT22;33129;52.232;5.192;2022-08-01T00:23:18;21.90;1.00
47384;DHT22;33129;52.232;5.192;2022-08-01T00:25:43;22.00;1.00
47384;DHT22;33129;52.232;5.192;2022-08-01T00:28:09;22.00;1.00
47384;DHT22;33129;52.232;5.192;2022-08-01T00:30:36;22.00;1.00
47384;DHT22;33129;52.232;5.192;2022-08-01T00:33:02;22.10;1.00
47384;DHT22;33129;52.232;5.192;2022-08-01T00:35:28;22.10;1.00
47384;DHT22;33129;52.232;5.192;2022-08-01T00:37:54;22.10;1.00
47384;DHT22;33129;52.232;5.192;2022-08-01T00:40:20;22.10;1.00
47384;DHT22;33129;52.232;5.192;2022-08-01T00:42:45;22.00;1.00
47384;DHT22;33129;52.232;5.192;2022-08-01T00:45:12;21.90;1.00
47384;DHT22;33129;52.232;5.192;2022-08-01T00:47:38;21.90;1.00
47384;DHT22;33129;52.232;5.192;2022-08-01T00:50:04;22.00;1.00
47384;DHT22;33129;52.232;5.192;2022-08-01T00:52:31;22.10;1.00
47384;DHT22;33129;52.232;5.192;2022-08-01T00:54:57;22.20;1.00
47384;DHT22;33129;52.232;5.192;2022-08-01T00:57:23;22.10;1.00
47384;DHT22;33129;52.232;5.192;2022-08-01T00:59:49;22.00;1.00
47384;DHT22;33129;52.232;5.192;2022-08-01T01:02:15;22.00;1.00
47384;DHT22;33129;52.232;5.192;2022-08-01T01:04:42;22.10;1.00
47384;DHT22;33129;52.232;5.192;2022-08-01T01:07:25;22.00;1.00
47384;DHT22;33129;52.232;5.192;2022-08-01T01:12:57;21.70;1.00
47384;DHT22;33129;52.232;5.192;2022-08-01T01:15:57;22.00;1.00
47384;DHT22;33129;52.232;5.192;2022-08-01T01:21:36;22.00;1.00
47384;DHT22;33129;52.232;5.192;2022-08-01T01:29:46;21.90;1.00
47384;DHT22;33129;52.232;5.192;2022-08-01T01:32:27;22.00;1.00
47384;DHT22;33129;52.232;5.192;2022-08-01T01:34:59;21.90;1.00
47384;DHT22;33129;52.232;5.192;2022-08-01T01:37:29;22.00;1.00
47384;DHT22;33129;52.232;5.192;2022-08-01T01:39:56;22.00;1.00
47384;DHT22;33129;52.232;5.192;2022-08-01T01:42:25;22.10;1.00
47384;DHT22;33129;52.232;5.192;2022-08-01T01:44:53;22.10;1.00
47384;DHT22;33129;52.232;5.192;2022-08-01T01:47:20;22.10;1.00
47384;DHT22;33129;52.232;5.192;2022-08-01T01:49:48;22.10;1.00
47384;DHT22;33129;52.232;5.192;2022-08-01T01:52:16;22.10;1.00
47384;DHT22;33129;52.232;5.192;2022-08-01T01:54:47;22.00;1.00
47384;DHT22;33129;52.232;5.192;2022-08-01T01:57:17;22.00;1.00
47384;DHT22;33129;52.232;5.192;2022-08-01T01:59:44;22.10;1.00
47384;DHT22;33129;52.232;5.192;2022-08-01T02:02:12;22.20;1.00
47384;DHT22;33129;52.232;5.192;2022-08-01T02:04:44;22.00;1.00
47384;DHT22;33129;52.232;5.192;2022-08-01T02:07:14;22.00;1.00
47384;DHT22;33129;52.232;5.192;2022-08-01T02:09:43;22.10;1.00
47384;DHT22;33129;52.232;5.192;2022-08-01T02:12:12;22.10;1.00
47384;DHT22;33129;52.232;5.192;2022-08-01T02:14:40;21.90;1.00
47384;DHT22;33129;52.232;5.192;2022-08-01T02:17:10;22.10;1.00
47384;DHT22;33129;52.232;5.192;2022-08-01T02:19:37;22.00;1.00
47384;DHT22;33129;52.232;5.192;2022-08-01T02:22:10;22.00;1.00
47384;DHT22;33129;52.232;5.192;2022-08-01T02:27:41;22.00;1.00
47384;DHT22;33129;52.232;5.192;2022-08-01T02:30:12;22.00;1.00
47384;DHT22;33129;52.232;5.192;2022-08-01T02:33:02;22.00;1.00
47384;DHT22;33129;52.232;5.192;2022-08-01T02:35:38;22.00;1.00
47384;DHT22;33129;52.232;5.192;2022-08-01T02:38:09;21.90;1.00
47384;DHT22;33129;52.232;5.192;2022-08-01T02:40:38;21.90;1.00
47384;DHT22;33129;52.232;5.192;2022-08-01T02:43:08;21.60;1.00
47384;DHT22;33129;52.232;5.192;2022-08-01T02:45:38;21.70;1.00
47384;DHT22;33129;52.232;5.192;2022-08-01T02:48:11;21.80;1.00
47384;DHT22;33129;52.232;5.192;2022-08-01T02:50:41;21.90;1.00
47384;DHT22;33129;52.232;5.192;2022-08-01T02:53:09;21.90;1.00
47384;DHT22;33129;52.232;5.192;2022-08-01T02:55:38;22.00;1.00
47384;DHT22;33129;52.232;5.192;2022-08-01T02:58:07;22.00;1.00
47384;DHT22;33129;52.232;5.192;2022-08-01T03:00:34;22.00;1.00
47384;DHT22;33129;52.232;5.192;2022-08-01T03:03:01;22.10;1.00
47384;DHT22;33129;52.232;5.192;2022-08-01T03:05:30;22.00;1.00
47384;DHT22;33129;52.232;5.192;2022-08-01T03:07:59;21.60;1.00
47384;DHT22;33129;52.232;5.192;2022-08-01T03:10:30;21.90;1.00
47384;DHT22;33129;52.232;5.192;2022-08-01T03:12:57;21.80;1.00
47384;DHT22;33129;52.232;5.192;2022-08-01T03:15:26;21.70;1.00
47384;DHT22;33129;52.232;5.192;2022-08-01T03:17:54;21.60;1.00
47384;DHT22;33129;52.232;5.192;2022-08-01T03:20:21;21.70;1.00
47384;DHT22;33129;52.232;5.192;2022-08-01T03:22:50;21.80;1.00
47384;DHT22;33129;52.232;5.192;2022-08-01T03:25:18;21.80;1.00
47384;DHT22;33129;52.232;5.192;2022-08-01T03:27:50;21.70;1.00
47384;DHT22;33129;52.232;5.192;2022-08-01T03:30:20;21.70;1.00
47384;DHT22;33129;52.232;5.192;2022-08-01T03:32:47;21.70;1.00
47384;DHT22;33129;52.232;5.192;2022-08-01T03:35:13;21.80;1.00
47384;DHT22;33129;52.232;5.192;2022-08-01T03:37:45;21.70;1.00
47384;DHT22;33129;52.232;5.192;2022-08-01T03:40:28;21.60;1.00
47384;DHT22;33129;52.232;5.192;2022-08-01T03:43:01;21.60;1.00
47384;DHT22;33129;52.232;5.192;2022-08-01T03:45:38;21.50;1.00
47384;DHT22;33129;52.232;5.192;2022-08-01T03:48:11;21.60;1.00
47384;DHT22;33129;52.232;5.192;2022-08-01T03:50:42;21.50;1.00
47384;DHT22;33129;52.232;5.192;2022-08-01T03:53:10;21.50;1.00
47384;DHT22;33129;52.232;5.192;2022-08-01T03:55:38;21.50;1.00
47384;DHT22;33129;52.232;5.192;2022-08-01T03:58:05;21.50;1.00
47384;DHT22;33129;52.232;5.192;2022-08-01T04:00:32;21.40;1.00
47384;DHT22;33129;52.232;5.192;2022-08-01T04:02:58;21.30;1.00
47384;DHT22;33129;52.232;5.192;2022-08-01T04:05:24;21.50;1.00
47384;DHT22;33129;52.232;5.192;2022-08-01T04:07:51;21.50;1.00
47384;DHT22;33129;52.232;5.192;2022-08-01T04:10:25;21.30;1.00
47384;DHT22;33129;52.232;5.192;2022-08-01T04:12:51;21.30;1.00
47384;DHT22;33129;52.232;5.192;2022-08-01T04:15:17;21.00;1.00
47384;DHT22;33129;52.232;5.192;2022-08-01T04:17:43;21.30;1.00
47384;DHT22;33129;52.232;5.192;2022-08-01T04:20:10;21.30;1.00
47384;DHT22;33129;52.232;5.192;2022-08-01T04:22:36;21.20;1.00
47384;DHT22;33129;52.232;5.192;2022-08-01T04:25:07;21.20;1.00
47384;DHT22;33129;52.232;5.192;2022-08-01T04:27:44;21.20;1.00
47384;DHT22;33129;52.232;5.192;2022-08-01T04:30:13;21.30;1.00
47384;DHT22;33129;52.232;5.192;2022-08-01T04:32:41;21.10;1.00
47384;DHT22;33129;52.232;5.192;2022-08-01T04:35:12;21.10;1.00
47384;DHT22;33129;52.232;5.192;2022-08-01T04:37:43;21.10;1.00
47384;DHT22;33129;52.232;5.192;2022-08-01T04:40:11;21.20;1.00
47384;DHT22;33129;52.232;5.192;2022-08-01T04:42:37;21.10;1.00
47384;DHT22;33129;52.232;5.192;2022-08-01T04:45:04;21.20;1.00
47384;DHT22;33129;52.232;5.192;2022-08-01T04:47:30;21.30;1.00
47384;DHT22;33129;52.232;5.192;2022-08-01T04:49:57;21.20;1.00
47384;DHT22;33129;52.232;5.192;2022-08-01T04:52:23;21.00;1.00
47384;DHT22;33129;52.232;5.192;2022-08-01T04:54:48;21.00;1.00
47384;DHT22;33129;52.232;5.192;2022-08-01T04:57:14;21.40;1.00
47384;DHT22;33129;52.232;5.192;2022-08-01T04:59:43;21.40;1.00
47384;DHT22;33129;52.232;5.192;2022-08-01T05:02:15;21.40;1.00
47384;DHT22;33129;52.232;5.192;2022-08-01T05:04:44;21.30;1.00
47384;DHT22;33129;52.232;5.192;2022-08-01T05:07:11;21.40;1.00
47384;DHT22;33129;52.232;5.192;2022-08-01T05:09:39;21.50;1.00
47384;DHT22;33129;52.232;5.192;2022-08-01T05:12:11;21.30;1.00
47384;DHT22;33129;52.232;5.192;2022-08-01T05:14:37;21.10;1.00
47384;DHT22;33129;52.232;5.192;2022-08-01T05:17:06;21.30;1.00
47384;DHT22;33129;52.232;5.192;2022-08-01T05:19:36;21.20;1.00
47384;DHT22;33129;52.232;5.192;2022-08-01T05:22:05;21.20;1.00
47384;DHT22;33129;52.232;5.192;2022-08-01T05:24:37;21.30;1.00
47384;DHT22;33129;52.232;5.192;2022-08-01T05:27:04;21.30;1.00
47384;DHT22;33129;52.232;5.192;2022-08-01T05:29:32;21.50;1.00
47384;DHT22;33129;52.232;5.192;2022-08-01T05:31:57;21.60;1.00
47384;DHT22;33129;52.232;5.192;2022-08-01T05:34:24;21.60;1.00
47384;DHT22;33129;52.232;5.192;2022-08-01T05:36:51;21.60;1.00
47384;DHT22;33129;52.232;5.192;2022-08-01T05:39:16;21.60;1.00
47384;DHT22;33129;52.232;5.192;2022-08-01T05:41:42;21.40;1.00
47384;DHT22;33129;52.232;5.192;2022-08-01T05:44:08;21.60;1.00
47384;DHT22;33129;52.232;5.192;2022-08-01T05:46:35;21.60;1.00
47384;DHT22;33129;52.232;5.192;2022-08-01T05:49:02;21.30;1.00
47384;DHT22;33129;52.232;5.192;2022-08-01T05:51:29;21.30;1.00
47384;DHT22;33129;52.232;5.192;2022-08-01T05:53:56;21.20;1.00
47384;DHT22;33129;52.232;5.192;2022-08-01T05:56:22;21.00;1.00
47384;DHT22;33129;52.232;5.192;2022-08-01T05:58:49;21.30;1.00
47384;DHT22;33129;52.232;5.192;2022-08-01T06:01:19;21.00;1.00
47384;DHT22;33129;52.232;5.192;2022-08-01T06:03:44;21.10;1.00
47384;DHT22;33129;52.232;5.192;2022-08-01T06:06:10;21.30;1.00
47384;DHT22;33129;52.232;5.192;2022-08-01T06:08:37;21.30;1.00
47384;DHT22;33129;52.232;5.192;2022-08-01T06:11:03;21.30;1.00
47384;DHT22;33129;52.232;5.192;2022-08-01T06:13:29;21.20;1.00
47384;DHT22;33129;52.232;5.192;2022-08-01T06:15:54;21.20;1.00
47384;DHT22;33129;52.232;5.192;2022-08-01T06:18:21;21.00;1.00
47384;DHT22;33129;52.232;5.192;2022-08-01T06:20:47;20.50;1.00
47384;DHT22;33129;52.232;5.192;2022-08-01T06:23:13;20.80;1.00
47384;DHT22;33129;52.232;5.192;2022-08-01T06:25:41;20.60;1.00
47384;DHT22;33129;52.232;5.192;2022-08-01T06:28:07;20.70;1.00
47384;DHT22;33129;52.232;5.192;2022-08-01T06:30:33;20.70;1.00
47384;DHT22;33129;52.232;5.192;2022-08-01T06:32:59;20.60;1.00
47384;DHT22;33129;52.232;5.192;2022-08-01T06:35:26;20.70;1.00
47384;DHT22;33129;52.232;5.192;2022-08-01T06:37:55;20.50;1.00
47384;DHT22;33129;52.232;5.192;2022-08-01T06:40:22;20.40;1.00
47384;DHT22;33129;52.232;5.192;2022-08-01T06:42:47;20.60;1.00
47384;DHT22;33129;52.232;5.192;2022-08-01T06:45:14;20.40;1.00
47384;DHT22;33129;52.232;5.192;2022-08-01T06:47:41;20.40;1.00
47384;DHT22;33129;52.232;5.192;2022-08-01T06:50:09;20.50;1.00
47384;DHT22;33129;52.232;5.192;2022-08-01T06:52:37;20.60;1.00
47384;DHT22;33129;52.232;5.192;2022-08-01T06:55:03;20.50;1.00
47384;DHT22;33129;52.232;5.192;2022-08-01T06:57:30;20.60;1.00
47384;DHT22;33129;52.232;5.192;2022-08-01T06:59:55;20.70;1.00
47384;DHT22;33129;52.232;5.192;2022-08-01T07:02:22;20.90;1.00
47384;DHT22;33129;52.232;5.192;2022-08-01T07:04:48;20.90;1.00
47384;DHT22;33129;52.232;5.192;2022-08-01T07:07:14;20.70;1.00
47384;DHT22;33129;52.232;5.192;2022-08-01T07:09:39;20.80;1.00
47384;DHT22;33129;52.232;5.192;2022-08-01T07:12:08;20.50;1.00
47384;DHT22;33129;52.232;5.192;2022-08-01T07:14:35;21.20;1.00
47384;DHT22;33129;52.232;5.192;2022-08-01T07:17:01;20.90;1.00
47384;DHT22;33129;52.232;5.192;2022-08-01T07:19:28;21.10;1.00
47384;DHT22;33129;52.232;5.192;2022-08-01T07:21:55;21.00;1.00
47384;DHT22;33129;52.232;5.192;2022-08-01T07:24:20;20.70;1.00
47384;DHT22;33129;52.232;5.192;2022-08-01T07:26:48;20.90;1.00
47384;DHT22;33129;52.232;5.192;2022-08-01T07:29:14;20.80;1.00
47384;DHT22;33129;52.232;5.192;2022-08-01T07:31:40;20.70;1.00
47384;DHT22;33129;52.232;5.192;2022-08-01T07:34:06;20.80;1.00
47384;DHT22;33129;52.232;5.192;2022-08-01T07:36:32;20.90;1.00
47384;DHT22;33129;52.232;5.192;2022-08-01T07:38:58;21.30;1.00
47384;DHT22;33129;52.232;5.192;2022-08-01T07:41:23;21.40;1.00
47384;DHT22;33129;52.232;5.192;2022-08-01T07:43:49;21.80;1.00
47384;DHT22;33129;52.232;5.192;2022-08-01T07:46:16;21.90;1.00
47384;DHT22;33129;52.232;5.192;2022-08-01T07:48:42;22.00;1.00
47384;DHT22;33129;52.232;5.192;2022-08-01T07:51:07;22.60;1.00
47384;DHT22;33129;52.232;5.192;2022-08-01T07:53:35;23.00;1.00
47384;DHT22;33129;52.232;5.192;2022-08-01T07:56:01;23.20;1.00
47384;DHT22;33129;52.232;5.192;2022-08-01T07:58:28;23.00;1.00
47384;DHT22;33129;52.232;5.192;2022-08-01T08:00:54;22.90;1.00
47384;DHT22;33129;52.232;5.192;2022-08-01T08:03:19;22.90;1.00
47384;DHT22;33129;52.232;5.192;2022-08-01T08:05:45;23.20;1.00
47384;DHT22;33129;52.232;5.192;2022-08-01T08:08:11;23.40;1.00
47384;DHT22;33129;52.232;5.192;2022-08-01T08:10:39;23.70;1.00
47384;DHT22;33129;52.232;5.192;2022-08-01T08:13:05;24.00;1.00
47384;DHT22;33129;52.232;5.192;2022-08-01T08:15:30;23.90;1.00
47384;DHT22;33129;52.232;5.192;2022-08-01T08:17:56;23.90;1.00
47384;DHT22;33129;52.232;5.192;2022-08-01T08:20:22;23.80;1.00
47384;DHT22;33129;52.232;5.192;2022-08-01T08:22:51;23.60;1.00
47384;DHT22;33129;52.232;5.192;2022-08-01T08:25:17;23.70;1.00
47384;DHT22;33129;52.232;5.192;2022-08-01T08:27:45;23.50;1.00
47384;DHT22;33129;52.232;5.192;2022-08-01T08:30:11;23.70;1.00
47384;DHT22;33129;52.232;5.192;2022-08-01T08:32:38;23.80;1.00
47384;DHT22;33129;52.232;5.192;2022-08-01T08:35:05;23.90;1.00
47384;DHT22;33129;52.232;5.192;2022-08-01T08:37:32;23.80;1.00
47384;DHT22;33129;52.232;5.192;2022-08-01T08:39:59;24.00;1.00
47384;DHT22;33129;52.232;5.192;2022-08-01T08:42:25;24.10;1.00
47384;DHT22;33129;52.232;5.192;2022-08-01T08:44:51;24.40;99.90
47384;DHT22;33129;52.232;5.192;2022-08-01T08:47:17;24.50;99.90
47384;DHT22;33129;52.232;5.192;2022-08-01T08:49:44;24.30;99.90
47384;DHT22;33129;52.232;5.192;2022-08-01T08:52:10;24.20;99.90
47384;DHT22;33129;52.232;5.192;2022-08-01T08:54:37;24.10;99.90
47384;DHT22;33129;52.232;5.192;2022-08-01T08:57:04;24.10;99.90
47384;DHT22;33129;52.232;5.192;2022-08-01T08:59:31;24.20;99.90
47384;DHT22;33129;52.232;5.192;2022-08-01T09:01:59;24.40;99.90
47384;DHT22;33129;52.232;5.192;2022-08-01T09:04:28;24.70;99.90
47384;DHT22;33129;52.232;5.192;2022-08-01T09:06:54;24.80;99.90
47384;DHT22;33129;52.232;5.192;2022-08-01T09:09:20;25.00;99.90
47384;DHT22;33129;52.232;5.192;2022-08-01T09:11:47;25.10;99.90
47384;DHT22;33129;52.232;5.192;2022-08-01T09:14:20;24.90;99.90
47384;DHT22;33129;52.232;5.192;2022-08-01T09:17:06;25.20;99.90
47384;DHT22;33129;52.232;5.192;2022-08-01T09:19:45;25.50;99.90
47384;DHT22;33129;52.232;5.192;2022-08-01T09:22:15;25.60;99.90
47384;DHT22;33129;52.232;5.192;2022-08-01T09:25:05;25.60;99.90
47384;DHT22;33129;52.232;5.192;2022-08-01T09:27:31;24.80;99.90
47384;DHT22;33129;52.232;5.192;2022-08-01T09:30:16;24.90;99.90
47384;DHT22;33129;52.232;5.192;2022-08-01T09:35:31;24.50;99.90
47384;DHT22;33129;52.232;5.192;2022-08-01T09:40:57;24.80;99.90
47384;DHT22;33129;52.232;5.192;2022-08-01T09:43:28;24.90;99.90
47384;DHT22;33129;52.232;5.192;2022-08-01T09:45:56;25.00;99.90
47384;DHT22;33129;52.232;5.192;2022-08-01T09:48:22;25.20;99.90
47384;DHT22;33129;52.232;5.192;2022-08-01T09:50:51;25.20;99.90
47384;DHT22;33129;52.232;5.192;2022-08-01T09:53:18;25.40;99.90
47384;DHT22;33129;52.232;5.192;2022-08-01T09:55:44;25.40;99.90
47384;DHT22;33129;52.232;5.192;2022-08-01T09:58:11;25.30;99.90
47384;DHT22;33129;52.232;5.192;2022-08-01T10:00:39;25.30;99.90
47384;DHT22;33129;52.232;5.192;2022-08-01T10:05:49;25.00;99.90
47384;DHT22;33129;52.232;5.192;2022-08-01T10:08:15;25.20;99.90
47384;DHT22;33129;52.232;5.192;2022-08-01T10:10:42;25.00;99.90
47384;DHT22;33129;52.232;5.192;2022-08-01T10:13:09;25.00;99.90
47384;DHT22;33129;52.232;5.192;2022-08-01T10:15:36;25.30;99.90
47384;DHT22;33129;52.232;5.192;2022-08-01T10:18:05;25.30;99.90
47384;DHT22;33129;52.232;5.192;2022-08-01T10:20:33;25.20;99.90
47384;DHT22;33129;52.232;5.192;2022-08-01T10:23:01;25.10;99.90
47384;DHT22;33129;52.232;5.192;2022-08-01T10:25:36;25.00;99.90
47384;DHT22;33129;52.232;5.192;2022-08-01T10:28:13;25.00;99.90
47384;DHT22;33129;52.232;5.192;2022-08-01T10:30:44;25.00;99.90
47384;DHT22;33129;52.232;5.192;2022-08-01T10:33:11;25.30;99.90
47384;DHT22;33129;52.232;5.192;2022-08-01T10:35:38;25.30;99.90
47384;DHT22;33129;52.232;5.192;2022-08-01T10:38:05;25.50;99.90
47384;DHT22;33129;52.232;5.192;2022-08-01T10:40:31;25.40;99.90
47384;DHT22;33129;52.232;5.192;2022-08-01T10:42:58;25.40;99.90
47384;DHT22;33129;52.232;5.192;2022-08-01T10:45:24;25.20;99.90
47384;DHT22;33129;52.232;5.192;2022-08-01T10:48:09;24.90;99.90
47384;DHT22;33129;52.232;5.192;2022-08-01T10:50:45;25.20;99.90
47384;DHT22;33129;52.232;5.192;2022-08-01T10:58:29;25.50;99.90
47384;DHT22;33129;52.232;5.192;2022-08-01T11:01:29;25.10;99.90
47384;DHT22;33129;52.232;5.192;2022-08-01T11:04:12;25.40;99.90
47384;DHT22;33129;52.232;5.192;2022-08-01T11:06:49;25.40;99.90
47384;DHT22;33129;52.232;5.192;2022-08-01T11:09:21;25.60;99.90
47384;DHT22;33129;52.232;5.192;2022-08-01T11:12:03;25.70;99.90
47384;DHT22;33129;52.232;5.192;2022-08-01T11:14:31;25.50;99.90
47384;DHT22;33129;52.232;5.192;2022-08-01T11:20:17;25.70;99.90
47384;DHT22;33129;52.232;5.192;2022-08-01T11:30:49;25.80;99.90
47384;DHT22;33129;52.232;5.192;2022-08-01T11:33:18;25.90;99.90
47384;DHT22;33129;52.232;5.192;2022-08-01T11:41:17;26.00;99.90
47384;DHT22;33129;52.232;5.192;2022-08-01T11:44:07;26.00;99.90
47384;DHT22;33129;52.232;5.192;2022-08-01T11:46:47;26.10;99.90
47384;DHT22;33129;52.232;5.192;2022-08-01T11:49:47;26.00;99.90
47384;DHT22;33129;52.232;5.192;2022-08-01T11:52:24;26.10;99.90
47384;DHT22;33129;52.232;5.192;2022-08-01T11:57:33;26.40;99.90
47384;DHT22;33129;52.232;5.192;2022-08-01T12:00:04;26.80;99.90
47384;DHT22;33129;52.232;5.192;2022-08-01T12:02:33;26.70;99.90
47384;DHT22;33129;52.232;5.192;2022-08-01T12:05:13;26.90;99.90
47384;DHT22;33129;52.232;5.192;2022-08-01T12:07:44;27.00;99.90
47384;DHT22;33129;52.232;5.192;2022-08-01T12:10:17;26.70;99.90
47384;DHT22;33129;52.232;5.192;2022-08-01T12:12:45;26.70;99.90
47384;DHT22;33129;52.232;5.192;2022-08-01T12:15:22;26.70;99.90
47384;DHT22;33129;52.232;5.192;2022-08-01T12:17:55;27.00;99.90
47384;DHT22;33129;52.232;5.192;2022-08-01T12:20:23;27.00;99.90
47384;DHT22;33129;52.232;5.192;2022-08-01T12:22:54;26.60;99.90
47384;DHT22;33129;52.232;5.192;2022-08-01T12:25:21;26.90;99.90
47384;DHT22;33129;52.232;5.192;2022-08-01T12:27:47;27.00;99.90
47384;DHT22;33129;52.232;5.192;2022-08-01T12:30:15;27.20;99.90
47384;DHT22;33129;52.232;5.192;2022-08-01T12:32:44;27.40;99.90
47384;DHT22;33129;52.232;5.192;2022-08-01T12:35:21;27.20;99.90
47384;DHT22;33129;52.232;5.192;2022-08-01T12:37:53;27.00;99.90
47384;DHT22;33129;52.232;5.192;2022-08-01T12:40:25;26.90;99.90
47384;DHT22;33129;52.232;5.192;2022-08-01T12:42:55;26.90;99.90
47384;DHT22;33129;52.232;5.192;2022-08-01T12:45:25;26.60;99.90
47384;DHT22;33129;52.232;5.192;2022-08-01T12:47:54;26.50;99.90
47384;DHT22;33129;52.232;5.192;2022-08-01T12:50:22;26.40;99.90
47384;DHT22;33129;52.232;5.192;2022-08-01T12:52:50;26.50;99.90
47384;DHT22;33129;52.232;5.192;2022-08-01T12:55:20;26.70;99.90
47384;DHT22;33129;52.232;5.192;2022-08-01T12:57:48;27.00;99.90
47384;DHT22;33129;52.232;5.192;2022-08-01T13:00:25;27.00;99.90
47384;DHT22;33129;52.232;5.192;2022-08-01T13:03:08;27.20;99.90
47384;DHT22;33129;52.232;5.192;2022-08-01T13:05:47;27.00;99.90
47384;DHT22;33129;52.232;5.192;2022-08-01T13:08:16;27.40;99.90
47384;DHT22;33129;52.232;5.192;2022-08-01T13:10:44;27.20;99.90
47384;DHT22;33129;52.232;5.192;2022-08-01T13:13:10;27.40;99.90
47384;DHT22;33129;52.232;5.192;2022-08-01T13:15:39;27.00;99.90
47384;DHT22;33129;52.232;5.192;2022-08-01T13:18:25;26.50;99.90
47384;DHT22;33129;52.232;5.192;2022-08-01T13:21:16;26.60;99.90
47384;DHT22;33129;52.232;5.192;2022-08-01T13:29:13;26.60;99.90
47384;DHT22;33129;52.232;5.192;2022-08-01T13:31:40;26.60;99.90
47384;DHT22;33129;52.232;5.192;2022-08-01T13:34:08;26.70;99.90
47384;DHT22;33129;52.232;5.192;2022-08-01T13:36:34;26.70;99.90
47384;DHT22;33129;52.232;5.192;2022-08-01T13:39:01;26.70;99.90
47384;DHT22;33129;52.232;5.192;2022-08-01T13:41:46;26.60;99.90
47384;DHT22;33129;52.232;5.192;2022-08-01T13:44:12;26.60;99.90
47384;DHT22;33129;52.232;5.192;2022-08-01T13:46:40;26.60;99.90
47384;DHT22;33129;52.232;5.192;2022-08-01T13:49:08;26.40;99.90
47384;DHT22;33129;52.232;5.192;2022-08-01T13:51:35;26.40;99.90
47384;DHT22;33129;52.232;5.192;2022-08-01T13:54:01;26.50;99.90
47384;DHT22;33129;52.232;5.192;2022-08-01T13:56:27;26.70;99.90
47384;DHT22;33129;52.232;5.192;2022-08-01T13:58:54;26.60;99.90
47384;DHT22;33129;52.232;5.192;2022-08-01T14:01:21;26.30;99.90
47384;DHT22;33129;52.232;5.192;2022-08-01T14:03:47;26.30;99.90
47384;DHT22;33129;52.232;5.192;2022-08-01T14:06:13;26.30;99.90
47384;DHT22;33129;52.232;5.192;2022-08-01T14:08:41;26.20;99.90
47384;DHT22;33129;52.232;5.192;2022-08-01T14:11:08;26.00;99.90
47384;DHT22;33129;52.232;5.192;2022-08-01T14:13:33;26.00;99.90
47384;DHT22;33129;52.232;5.192;2022-08-01T14:15:59;26.10;99.90
47384;DHT22;33129;52.232;5.192;2022-08-01T14:18:25;26.20;99.90
47384;DHT22;33129;52.232;5.192;2022-08-01T14:20:51;26.10;99.90
47384;DHT22;33129;52.232;5.192;2022-08-01T14:23:17;26.20;99.90
47384;DHT22;33129;52.232;5.192;2022-08-01T14:25:43;26.20;99.90
47384;DHT22;33129;52.232;5.192;2022-08-01T14:28:09;26.00;99.90
47384;DHT22;33129;52.232;5.192;2022-08-01T14:30:35;25.90;99.90
47384;DHT22;33129;52.232;5.192;2022-08-01T14:33:02;25.80;99.90
47384;DHT22;33129;52.232;5.192;2022-08-01T14:35:27;25.90;99.90
47384;DHT22;33129;52.232;5.192;2022-08-01T14:37:53;25.90;99.90
47384;DHT22;33129;52.232;5.192;2022-08-01T14:40:19;26.00;99.90
47384;DHT22;33129;52.232;5.192;2022-08-01T14:42:45;26.00;99.90
47384;DHT22;33129;52.232;5.192;2022-08-01T14:45:12;26.00;99.90
47384;DHT22;33129;52.232;5.192;2022-08-01T14:47:39;26.20;99.90
47384;DHT22;33129;52.232;5.192;2022-08-01T14:50:08;26.10;99.90
47384;DHT22;33129;52.232;5.192;2022-08-01T14:52:38;25.80;99.90
47384;DHT22;33129;52.232;5.192;2022-08-01T14:55:06;25.70;99.90
47384;DHT22;33129;52.232;5.192;2022-08-01T14:57:33;25.70;99.90
47384;DHT22;33129;52.232;5.192;2022-08-01T14:59:59;25.60;99.90
47384;DHT22;33129;52.232;5.192;2022-08-01T15:02:24;25.70;99.90
47384;DHT22;33129;52.232;5.192;2022-08-01T15:04:50;25.90;99.90
47384;DHT22;33129;52.232;5.192;2022-08-01T15:07:17;25.70;99.90
47384;DHT22;33129;52.232;5.192;2022-08-01T15:09:43;25.40;99.90
47384;DHT22;33129;52.232;5.192;2022-08-01T15:12:10;25.30;99.90
47384;DHT22;33129;52.232;5.192;2022-08-01T15:14:36;25.10;99.90
47384;DHT22;33129;52.232;5.192;2022-08-01T15:17:21;25.20;99.90
47384;DHT22;33129;52.232;5.192;2022-08-01T15:20:05;25.10;99.90
47384;DHT22;33129;52.232;5.192;2022-08-01T15:22:31;25.00;99.90
47384;DHT22;33129;52.232;5.192;2022-08-01T15:24:59;25.10;99.90
47384;DHT22;33129;52.232;5.192;2022-08-01T15:27:26;25.00;99.90
47384;DHT22;33129;52.232;5.192;2022-08-01T15:29:53;25.10;99.90
47384;DHT22;33129;52.232;5.192;2022-08-01T15:32:21;24.90;99.90
47384;DHT22;33129;52.232;5.192;2022-08-01T15:34:47;24.90;99.90
47384;DHT22;33129;52.232;5.192;2022-08-01T15:37:13;25.10;99.90
47384;DHT22;33129;52.232;5.192;2022-08-01T15:39:40;25.20;99.90
47384;DHT22;33129;52.232;5.192;2022-08-01T15:42:11;25.20;99.90
47384;DHT22;33129;52.232;5.192;2022-08-01T15:44:38;25.20;99.90
47384;DHT22;33129;52.232;5.192;2022-08-01T15:47:05;25.30;99.90
47384;DHT22;33129;52.232;5.192;2022-08-01T15:49:31;25.50;99.90
47384;DHT22;33129;52.232;5.192;2022-08-01T15:51:57;25.50;99.90
47384;DHT22;33129;52.232;5.192;2022-08-01T15:54:23;25.50;99.90
47384;DHT22;33129;52.232;5.192;2022-08-01T15:56:50;25.60;99.90
47384;DHT22;33129;52.232;5.192;2022-08-01T15:59:15;25.60;99.90
47384;DHT22;33129;52.232;5.192;2022-08-01T16:01:42;25.40;99.90
47384;DHT22;33129;52.232;5.192;2022-08-01T16:04:08;25.30;99.90
47384;DHT22;33129;52.232;5.192;2022-08-01T16:06:34;25.30;99.90
47384;DHT22;33129;52.232;5.192;2022-08-01T16:09:02;25.20;99.90
47384;DHT22;33129;52.232;5.192;2022-08-01T16:11:29;25.30;99.90
47384;DHT22;33129;52.232;5.192;2022-08-01T16:13:56;25.20;99.90
47384;DHT22;33129;52.232;5.192;2022-08-01T16:16:26;25.20;99.90
47384;DHT22;33129;52.232;5.192;2022-08-01T16:18:52;25.40;99.90
47384;DHT22;33129;52.232;5.192;2022-08-01T16:21:18;25.20;99.90
47384;DHT22;33129;52.232;5.192;2022-08-01T16:23:45;25.20;99.90
47384;DHT22;33129;52.232;5.192;2022-08-01T16:26:11;25.20;99.90
47384;DHT22;33129;52.232;5.192;2022-08-01T16:28:39;25.30;99.90
47384;DHT22;33129;52.232;5.192;2022-08-01T16:31:05;25.20;99.90
47384;DHT22;33129;52.232;5.192;2022-08-01T16:33:31;25.30;99.90
47384;DHT22;33129;52.232;5.192;2022-08-01T16:35:59;25.20;99.90
47384;DHT22;33129;52.232;5.192;2022-08-01T16:38:25;25.30;99.90
47384;DHT22;33129;52.232;5.192;2022-08-01T16:40:51;25.30;99.90
47384;DHT22;33129;52.232;5.192;2022-08-01T16:43:20;25.10;99.90